Downstream station:
SHEF ID: BZRK1 SF COTTONWOOD R NR BAZAAR, KS
STATION TYPE:
PRECIP STAGE RIV-FLOW BAT-LOAD
in ft cfs volt
Ccp-Rev Ccp-Rev Ccp-Rev Ccp-Rev
(US/Central)
11/26 00:00 0.00 7.07 49 12.65
11/26 01:00 0.00 7.05 48 12.60
11/26 02:00 0.00 7.05 48 12.60
11/26 03:00 0.00 7.04 47 12.54
11/26 04:00 0.00 7.04 47 12.54
11/26 05:00 0.00 7.03 46 12.54
11/26 06:00 0.00 7.03 46 12.48
11/26 07:00 0.00 7.02 45 12.42
11/26 08:00 0.00 7.02 45 12.42
11/26 09:00 0.00 6.96 41 12.89
11/26 10:00 0.00 7.00 44 14.00
11/26 11:00 0.00 7.01 44 14.47
11/26 12:00 0.00 6.98 42 14.30
11/26 13:00 0.00 7.00 44 14.30
11/26 14:00 0.00 7.00 44 14.24
11/26 15:00 0.00 6.99 43 13.94
11/26 16:00 0.00 7.00 44 13.94
11/26 17:00 0.00 7.00 44 13.65
11/26 18:00 0.00 7.01 44 13.00
11/26 19:00 0.00 7.01 44 12.77
11/26 20:00 0.00 7.01 44 12.77
11/26 21:00 0.00 7.01 44 12.71
11/26 22:00 0.00 6.99 43 12.71
11/26 23:00 ---- ---- ---- ----